sensor_id;sensor_type;location;lat;lon;timestamp;temperature;humidity
23597;DHT22;40226;50.874;4.394;2023-05-16T00:02:10;11.00;51.30
23597;DHT22;40226;50.874;4.394;2023-05-16T00:04:36;11.10;43.80
23597;DHT22;40226;50.874;4.394;2023-05-16T00:07:01;11.00;54.50
23597;DHT22;40226;50.874;4.394;2023-05-16T00:09:27;11.20;37.20
23597;DHT22;40226;50.874;4.394;2023-05-16T00:11:52;11.10;47.90
23597;DHT22;40226;50.874;4.394;2023-05-16T00:14:18;11.00;52.40
23597;DHT22;40226;50.874;4.394;2023-05-16T00:16:44;10.90;57.90
23597;DHT22;40226;50.874;4.394;2023-05-16T00:19:10;11.00;54.00
23597;DHT22;40226;50.874;4.394;2023-05-16T00:21:35;10.90;64.60
23597;DHT22;40226;50.874;4.394;2023-05-16T00:24:03;10.90;66.00
23597;DHT22;40226;50.874;4.394;2023-05-16T00:26:29;10.80;61.50
23597;DHT22;40226;50.874;4.394;2023-05-16T00:28:55;10.70;69.50
23597;DHT22;40226;50.874;4.394;2023-05-16T00:31:20;10.80;77.20
23597;DHT22;40226;50.874;4.394;2023-05-16T00:33:46;10.90;65.80
23597;DHT22;40226;50.874;4.394;2023-05-16T00:36:12;10.80;69.40
23597;DHT22;40226;50.874;4.394;2023-05-16T00:38:38;10.90;66.50
23597;DHT22;40226;50.874;4.394;2023-05-16T00:41:03;10.80;61.80
23597;DHT22;40226;50.874;4.394;2023-05-16T00:43:29;10.60;75.80
23597;DHT22;40226;50.874;4.394;2023-05-16T00:45:55;10.50;88.30
23597;DHT22;40226;50.874;4.394;2023-05-16T00:48:22;10.50;92.50
23597;DHT22;40226;50.874;4.394;2023-05-16T00:50:48;10.50;93.00
23597;DHT22;40226;50.874;4.394;2023-05-16T00:53:14;10.60;86.30
23597;DHT22;40226;50.874;4.394;2023-05-16T00:55:39;10.60;81.30
23597;DHT22;40226;50.874;4.394;2023-05-16T00:58:05;10.40;94.70
23597;DHT22;40226;50.874;4.394;2023-05-16T01:00:31;10.50;90.90
23597;DHT22;40226;50.874;4.394;2023-05-16T01:02:57;10.40;90.10
23597;DHT22;40226;50.874;4.394;2023-05-16T01:05:23;10.30;99.10
23597;DHT22;40226;50.874;4.394;2023-05-16T01:07:50;10.30;94.80
23597;DHT22;40226;50.874;4.394;2023-05-16T01:10:16;10.30;93.30
23597;DHT22;40226;50.874;4.394;2023-05-16T01:13:10;10.20;95.00
23597;DHT22;40226;50.874;4.394;2023-05-16T01:16:04;10.20;97.80
23597;DHT22;40226;50.874;4.394;2023-05-16T01:18:40;10.10;98.10
23597;DHT22;40226;50.874;4.394;2023-05-16T01:21:13;10.10;96.40
23597;DHT22;40226;50.874;4.394;2023-05-16T01:24:08;10.00;99.90
23597;DHT22;40226;50.874;4.394;2023-05-16T01:26:38;10.10;99.60
23597;DHT22;40226;50.874;4.394;2023-05-16T01:29:05;10.00;98.70
23597;DHT22;40226;50.874;4.394;2023-05-16T01:31:31;9.90;99.90
23597;DHT22;40226;50.874;4.394;2023-05-16T01:33:57;10.00;99.90
23597;DHT22;40226;50.874;4.394;2023-05-16T01:44:34;10.10;97.80
23597;DHT22;40226;50.874;4.394;2023-05-16T01:47:02;10.10;99.90
23597;DHT22;40226;50.874;4.394;2023-05-16T01:49:50;10.10;99.10
23597;DHT22;40226;50.874;4.394;2023-05-16T01:52:31;10.10;98.80
23597;DHT22;40226;50.874;4.394;2023-05-16T01:55:01;10.20;99.70
23597;DHT22;40226;50.874;4.394;2023-05-16T01:57:28;10.10;99.60
23597;DHT22;40226;50.874;4.394;2023-05-16T01:59:54;10.10;99.70
23597;DHT22;40226;50.874;4.394;2023-05-16T02:02:20;10.00;99.90
23597;DHT22;40226;50.874;4.394;2023-05-16T02:04:46;10.10;99.90
23597;DHT22;40226;50.874;4.394;2023-05-16T02:07:12;9.90;99.90
23597;DHT22;40226;50.874;4.394;2023-05-16T02:09:39;10.00;99.90
23597;DHT22;40226;50.874;4.394;2023-05-16T02:12:05;10.10;99.40
23597;DHT22;40226;50.874;4.394;2023-05-16T02:14:31;9.90;99.90
23597;DHT22;40226;50.874;4.394;2023-05-16T02:16:57;10.00;99.90
23597;DHT22;40226;50.874;4.394;2023-05-16T02:19:22;9.80;99.90
23597;DHT22;40226;50.874;4.394;2023-05-16T02:21:48;9.80;99.90
23597;DHT22;40226;50.874;4.394;2023-05-16T02:24:14;9.80;99.90
23597;DHT22;40226;50.874;4.394;2023-05-16T02:26:40;9.80;99.90
23597;DHT22;40226;50.874;4.394;2023-05-16T02:29:05;9.70;99.90
23597;DHT22;40226;50.874;4.394;2023-05-16T02:31:32;9.70;99.90
23597;DHT22;40226;50.874;4.394;2023-05-16T02:33:59;9.80;99.90
23597;DHT22;40226;50.874;4.394;2023-05-16T02:36:25;9.80;99.90
23597;DHT22;40226;50.874;4.394;2023-05-16T02:38:51;9.90;99.90
23597;DHT22;40226;50.874;4.394;2023-05-16T02:41:17;9.90;99.90
23597;DHT22;40226;50.874;4.394;2023-05-16T02:43:43;9.70;99.90
23597;DHT22;40226;50.874;4.394;2023-05-16T02:46:23;9.70;99.90
23597;DHT22;40226;50.874;4.394;2023-05-16T02:48:49;9.70;99.90
23597;DHT22;40226;50.874;4.394;2023-05-16T02:51:15;9.60;99.90
23597;DHT22;40226;50.874;4.394;2023-05-16T02:53:41;9.70;99.90
23597;DHT22;40226;50.874;4.394;2023-05-16T02:56:07;9.70;99.90
23597;DHT22;40226;50.874;4.394;2023-05-16T02:58:33;9.50;99.90
23597;DHT22;40226;50.874;4.394;2023-05-16T03:00:58;9.60;99.90
23597;DHT22;40226;50.874;4.394;2023-05-16T03:03:24;9.60;99.90
23597;DHT22;40226;50.874;4.394;2023-05-16T03:05:50;9.50;99.90
23597;DHT22;40226;50.874;4.394;2023-05-16T03:08:16;9.40;99.90
23597;DHT22;40226;50.874;4.394;2023-05-16T03:10:42;9.50;99.90
23597;DHT22;40226;50.874;4.394;2023-05-16T03:13:08;9.40;99.90
23597;DHT22;40226;50.874;4.394;2023-05-16T03:15:33;9.50;99.90
23597;DHT22;40226;50.874;4.394;2023-05-16T03:17:59;9.50;99.90
23597;DHT22;40226;50.874;4.394;2023-05-16T03:20:25;9.50;99.90
23597;DHT22;40226;50.874;4.394;2023-05-16T03:22:51;9.60;99.90
23597;DHT22;40226;50.874;4.394;2023-05-16T03:25:17;9.60;99.90
23597;DHT22;40226;50.874;4.394;2023-05-16T03:27:42;9.50;99.90
23597;DHT22;40226;50.874;4.394;2023-05-16T03:30:08;9.50;99.90
23597;DHT22;40226;50.874;4.394;2023-05-16T03:32:34;9.60;99.90
23597;DHT22;40226;50.874;4.394;2023-05-16T03:34:59;9.60;99.90
23597;DHT22;40226;50.874;4.394;2023-05-16T03:37:25;9.50;99.90
23597;DHT22;40226;50.874;4.394;2023-05-16T03:39:52;9.40;99.90
23597;DHT22;40226;50.874;4.394;2023-05-16T03:42:17;9.30;99.90
23597;DHT22;40226;50.874;4.394;2023-05-16T03:44:43;9.30;99.90
23597;DHT22;40226;50.874;4.394;2023-05-16T03:47:09;9.30;99.90
23597;DHT22;40226;50.874;4.394;2023-05-16T03:49:35;9.40;99.90
23597;DHT22;40226;50.874;4.394;2023-05-16T03:52:02;9.50;99.90
23597;DHT22;40226;50.874;4.394;2023-05-16T03:54:28;9.60;99.90
23597;DHT22;40226;50.874;4.394;2023-05-16T03:56:53;9.40;99.90
23597;DHT22;40226;50.874;4.394;2023-05-16T03:59:19;9.50;99.90
23597;DHT22;40226;50.874;4.394;2023-05-16T04:01:46;9.50;99.90
23597;DHT22;40226;50.874;4.394;2023-05-16T04:04:11;9.50;99.90
23597;DHT22;40226;50.874;4.394;2023-05-16T04:06:37;9.40;99.90
23597;DHT22;40226;50.874;4.394;2023-05-16T04:09:02;9.30;99.90
23597;DHT22;40226;50.874;4.394;2023-05-16T04:11:28;9.40;99.90
23597;DHT22;40226;50.874;4.394;2023-05-16T04:13:54;9.40;99.90
23597;DHT22;40226;50.874;4.394;2023-05-16T04:16:20;9.40;99.90
23597;DHT22;40226;50.874;4.394;2023-05-16T04:18:45;9.40;99.90
23597;DHT22;40226;50.874;4.394;2023-05-16T04:21:11;9.30;99.90
23597;DHT22;40226;50.874;4.394;2023-05-16T04:23:40;9.40;99.90
23597;DHT22;40226;50.874;4.394;2023-05-16T04:26:05;9.30;99.90
23597;DHT22;40226;50.874;4.394;2023-05-16T04:28:31;9.40;99.90
23597;DHT22;40226;50.874;4.394;2023-05-16T04:30:57;9.40;99.90
23597;DHT22;40226;50.874;4.394;2023-05-16T04:33:23;9.30;99.90
23597;DHT22;40226;50.874;4.394;2023-05-16T04:35:50;9.40;99.90
23597;DHT22;40226;50.874;4.394;2023-05-16T04:38:17;9.40;99.90
23597;DHT22;40226;50.874;4.394;2023-05-16T04:40:44;9.50;99.90
23597;DHT22;40226;50.874;4.394;2023-05-16T04:43:11;9.40;99.90
23597;DHT22;40226;50.874;4.394;2023-05-16T04:45:36;9.40;99.90
23597;DHT22;40226;50.874;4.394;2023-05-16T04:48:02;9.40;99.90
23597;DHT22;40226;50.874;4.394;2023-05-16T04:50:28;9.40;99.90
23597;DHT22;40226;50.874;4.394;2023-05-16T04:52:54;9.50;99.90
23597;DHT22;40226;50.874;4.394;2023-05-16T04:55:19;9.70;99.90
23597;DHT22;40226;50.874;4.394;2023-05-16T04:57:45;9.80;99.90
23597;DHT22;40226;50.874;4.394;2023-05-16T05:00:12;9.60;99.90
23597;DHT22;40226;50.874;4.394;2023-05-16T05:02:38;9.50;99.90
23597;DHT22;40226;50.874;4.394;2023-05-16T05:05:04;9.60;99.90
23597;DHT22;40226;50.874;4.394;2023-05-16T05:07:31;9.80;99.90
23597;DHT22;40226;50.874;4.394;2023-05-16T05:09:57;9.90;99.90
23597;DHT22;40226;50.874;4.394;2023-05-16T05:12:23;9.90;99.90
23597;DHT22;40226;50.874;4.394;2023-05-16T05:14:49;9.80;99.90
23597;DHT22;40226;50.874;4.394;2023-05-16T05:17:16;10.00;99.90
23597;DHT22;40226;50.874;4.394;2023-05-16T05:19:42;9.90;99.90
23597;DHT22;40226;50.874;4.394;2023-05-16T05:22:07;10.00;99.90
23597;DHT22;40226;50.874;4.394;2023-05-16T05:24:33;10.20;99.90
23597;DHT22;40226;50.874;4.394;2023-05-16T05:26:59;10.20;99.70
23597;DHT22;40226;50.874;4.394;2023-05-16T05:29:24;10.20;99.90
23597;DHT22;40226;50.874;4.394;2023-05-16T05:31:51;10.20;99.90
23597;DHT22;40226;50.874;4.394;2023-05-16T05:34:18;10.30;99.90
23597;DHT22;40226;50.874;4.394;2023-05-16T05:36:43;10.50;99.30
23597;DHT22;40226;50.874;4.394;2023-05-16T05:39:09;10.60;98.90
23597;DHT22;40226;50.874;4.394;2023-05-16T05:41:35;10.60;96.50
23597;DHT22;40226;50.874;4.394;2023-05-16T05:44:01;10.60;93.20
23597;DHT22;40226;50.874;4.394;2023-05-16T05:46:27;10.60;93.10
23597;DHT22;40226;50.874;4.394;2023-05-16T05:48:54;10.50;93.60
23597;DHT22;40226;50.874;4.394;2023-05-16T05:51:20;10.70;90.20
23597;DHT22;40226;50.874;4.394;2023-05-16T05:53:46;10.90;81.80
23597;DHT22;40226;50.874;4.394;2023-05-16T05:56:11;10.80;70.40
23597;DHT22;40226;50.874;4.394;2023-05-16T05:58:38;10.80;80.70
23597;DHT22;40226;50.874;4.394;2023-05-16T06:01:06;10.90;79.50
23597;DHT22;40226;50.874;4.394;2023-05-16T06:03:31;11.10;61.60
23597;DHT22;40226;50.874;4.394;2023-05-16T06:05:57;11.10;57.60
23597;DHT22;40226;50.874;4.394;2023-05-16T06:08:23;11.10;62.10
23597;DHT22;40226;50.874;4.394;2023-05-16T06:10:48;11.30;63.30
23597;DHT22;40226;50.874;4.394;2023-05-16T06:13:14;11.50;37.40
23597;DHT22;40226;50.874;4.394;2023-05-16T06:15:40;11.50;17.60
23597;DHT22;40226;50.874;4.394;2023-05-16T06:18:06;11.50;8.30
23597;DHT22;40226;50.874;4.394;2023-05-16T06:20:31;11.70;4.40
23597;DHT22;40226;50.874;4.394;2023-05-16T06:22:57;11.80;7.20
23597;DHT22;40226;50.874;4.394;2023-05-16T06:25:23;12.10;1.00
23597;DHT22;40226;50.874;4.394;2023-05-16T06:27:49;12.30;1.00
23597;DHT22;40226;50.874;4.394;2023-05-16T06:30:14;12.40;1.00
23597;DHT22;40226;50.874;4.394;2023-05-16T06:32:40;12.40;1.00
23597;DHT22;40226;50.874;4.394;2023-05-16T06:35:07;12.40;1.00
23597;DHT22;40226;50.874;4.394;2023-05-16T06:37:33;12.40;1.00
23597;DHT22;40226;50.874;4.394;2023-05-16T06:39:59;12.50;1.00
23597;DHT22;40226;50.874;4.394;2023-05-16T06:42:25;12.60;1.00
23597;DHT22;40226;50.874;4.394;2023-05-16T06:44:51;12.70;1.00
23597;DHT22;40226;50.874;4.394;2023-05-16T06:47:16;12.80;1.00
23597;DHT22;40226;50.874;4.394;2023-05-16T06:49:42;12.90;1.00
23597;DHT22;40226;50.874;4.394;2023-05-16T06:52:08;12.80;1.00
23597;DHT22;40226;50.874;4.394;2023-05-16T06:54:34;12.80;1.00
23597;DHT22;40226;50.874;4.394;2023-05-16T06:56:59;12.90;1.00
23597;DHT22;40226;50.874;4.394;2023-05-16T06:59:25;12.80;1.00
23597;DHT22;40226;50.874;4.394;2023-05-16T07:01:51;12.80;1.00
23597;DHT22;40226;50.874;4.394;2023-05-16T07:04:16;12.90;1.00
23597;DHT22;40226;50.874;4.394;2023-05-16T07:06:42;13.20;1.00
23597;DHT22;40226;50.874;4.394;2023-05-16T07:09:08;13.50;1.00
23597;DHT22;40226;50.874;4.394;2023-05-16T07:11:33;13.50;1.00
23597;DHT22;40226;50.874;4.394;2023-05-16T07:13:59;13.40;1.00
23597;DHT22;40226;50.874;4.394;2023-05-16T07:16:25;13.30;1.00
23597;DHT22;40226;50.874;4.394;2023-05-16T07:18:53;13.20;1.00
23597;DHT22;40226;50.874;4.394;2023-05-16T07:21:20;13.20;1.00
23597;DHT22;40226;50.874;4.394;2023-05-16T07:23:45;12.90;1.00
23597;DHT22;40226;50.874;4.394;2023-05-16T07:26:11;12.90;1.00
23597;DHT22;40226;50.874;4.394;2023-05-16T07:28:37;12.90;1.00
23597;DHT22;40226;50.874;4.394;2023-05-16T07:31:02;12.70;1.00
23597;DHT22;40226;50.874;4.394;2023-05-16T07:33:28;12.90;1.00
23597;DHT22;40226;50.874;4.394;2023-05-16T07:35:53;12.90;1.00
23597;DHT22;40226;50.874;4.394;2023-05-16T07:38:20;12.90;1.00
23597;DHT22;40226;50.874;4.394;2023-05-16T07:40:46;12.80;1.00
23597;DHT22;40226;50.874;4.394;2023-05-16T07:43:14;12.80;1.00
23597;DHT22;40226;50.874;4.394;2023-05-16T07:45:39;12.90;1.00
23597;DHT22;40226;50.874;4.394;2023-05-16T07:48:05;12.90;1.00
23597;DHT22;40226;50.874;4.394;2023-05-16T07:50:31;12.80;1.00
23597;DHT22;40226;50.874;4.394;2023-05-16T07:52:57;12.90;1.00
23597;DHT22;40226;50.874;4.394;2023-05-16T07:55:23;13.00;1.00
23597;DHT22;40226;50.874;4.394;2023-05-16T07:57:49;13.30;1.00
23597;DHT22;40226;50.874;4.394;2023-05-16T08:00:16;13.40;1.00
23597;DHT22;40226;50.874;4.394;2023-05-16T08:02:41;13.40;1.00
23597;DHT22;40226;50.874;4.394;2023-05-16T08:05:07;13.80;1.00
23597;DHT22;40226;50.874;4.394;2023-05-16T08:07:33;14.00;99.90
23597;DHT22;40226;50.874;4.394;2023-05-16T08:09:59;14.00;99.90
23597;DHT22;40226;50.874;4.394;2023-05-16T08:12:24;13.80;99.90
23597;DHT22;40226;50.874;4.394;2023-05-16T08:14:51;13.40;99.90
23597;DHT22;40226;50.874;4.394;2023-05-16T08:17:17;13.20;99.90
23597;DHT22;40226;50.874;4.394;2023-05-16T08:19:43;13.40;99.90
23597;DHT22;40226;50.874;4.394;2023-05-16T08:22:09;13.50;99.90
23597;DHT22;40226;50.874;4.394;2023-05-16T08:24:35;13.70;99.90
23597;DHT22;40226;50.874;4.394;2023-05-16T08:27:03;13.70;99.90
23597;DHT22;40226;50.874;4.394;2023-05-16T08:29:29;13.80;99.90
23597;DHT22;40226;50.874;4.394;2023-05-16T08:31:56;14.30;49.00
23597;DHT22;40226;50.874;4.394;2023-05-16T08:34:21;14.70;1.00
23597;DHT22;40226;50.874;4.394;2023-05-16T08:36:48;14.70;99.90
23597;DHT22;40226;50.874;4.394;2023-05-16T08:39:14;14.50;1.00
23597;DHT22;40226;50.874;4.394;2023-05-16T08:41:40;14.50;1.00
23597;DHT22;40226;50.874;4.394;2023-05-16T08:44:06;14.30;1.00
23597;DHT22;40226;50.874;4.394;2023-05-16T08:46:32;14.20;1.00
23597;DHT22;40226;50.874;4.394;2023-05-16T08:49:01;14.40;1.00
23597;DHT22;40226;50.874;4.394;2023-05-16T08:51:32;14.40;1.00
23597;DHT22;40226;50.874;4.394;2023-05-16T08:54:06;14.20;1.00
23597;DHT22;40226;50.874;4.394;2023-05-16T08:56:35;14.00;99.90
23597;DHT22;40226;50.874;4.394;2023-05-16T08:59:02;14.30;19.90
23597;DHT22;40226;50.874;4.394;2023-05-16T09:01:29;14.50;80.10
23597;DHT22;40226;50.874;4.394;2023-05-16T09:04:07;14.80;44.30
23597;DHT22;40226;50.874;4.394;2023-05-16T09:06:33;14.80;1.00
23597;DHT22;40226;50.874;4.394;2023-05-16T09:08:59;14.80;1.00
23597;DHT22;40226;50.874;4.394;2023-05-16T09:11:25;14.60;1.00
23597;DHT22;40226;50.874;4.394;2023-05-16T09:13:50;14.60;99.90
23597;DHT22;40226;50.874;4.394;2023-05-16T09:16:19;14.40;1.00
23597;DHT22;40226;50.874;4.394;2023-05-16T09:18:53;14.60;1.00
23597;DHT22;40226;50.874;4.394;2023-05-16T09:21:20;14.60;99.90
23597;DHT22;40226;50.874;4.394;2023-05-16T09:23:48;14.80;1.00
23597;DHT22;40226;50.874;4.394;2023-05-16T09:26:14;14.90;1.00
23597;DHT22;40226;50.874;4.394;2023-05-16T09:28:40;15.20;1.00
23597;DHT22;40226;50.874;4.394;2023-05-16T09:31:23;15.50;89.80
23597;DHT22;40226;50.874;4.394;2023-05-16T09:33:51;15.40;63.70
23597;DHT22;40226;50.874;4.394;2023-05-16T09:36:17;15.50;99.90
23597;DHT22;40226;50.874;4.394;2023-05-16T09:38:43;15.70;1.00
23597;DHT22;40226;50.874;4.394;2023-05-16T09:41:11;15.70;1.00
23597;DHT22;40226;50.874;4.394;2023-05-16T09:43:41;16.00;99.90
23597;DHT22;40226;50.874;4.394;2023-05-16T09:46:11;15.90;1.00
23597;DHT22;40226;50.874;4.394;2023-05-16T09:48:48;15.70;1.00
23597;DHT22;40226;50.874;4.394;2023-05-16T09:51:21;15.60;99.90
23597;DHT22;40226;50.874;4.394;2023-05-16T09:53:47;15.70;1.00
23597;DHT22;40226;50.874;4.394;2023-05-16T09:56:14;15.80;1.00
23597;DHT22;40226;50.874;4.394;2023-05-16T09:58:41;15.70;99.90
23597;DHT22;40226;50.874;4.394;2023-05-16T10:01:08;15.50;1.00
23597;DHT22;40226;50.874;4.394;2023-05-16T10:03:35;15.50;1.00
23597;DHT22;40226;50.874;4.394;2023-05-16T10:06:02;15.70;1.00
23597;DHT22;40226;50.874;4.394;2023-05-16T10:09:27;15.70;1.00
23597;DHT22;40226;50.874;4.394;2023-05-16T10:12:37;15.80;99.90
23597;DHT22;40226;50.874;4.394;2023-05-16T10:15:28;16.00;99.90
23597;DHT22;40226;50.874;4.394;2023-05-16T10:18:31;16.10;1.00
23597;DHT22;40226;50.874;4.394;2023-05-16T10:21:37;16.10;1.00
23597;DHT22;40226;50.874;4.394;2023-05-16T10:24:21;16.00;1.00
23597;DHT22;40226;50.874;4.394;2023-05-16T10:26:48;15.90;1.00
23597;DHT22;40226;50.874;4.394;2023-05-16T10:29:55;16.10;1.00
23597;DHT22;40226;50.874;4.394;2023-05-16T10:32:38;16.30;99.90
23597;DHT22;40226;50.874;4.394;2023-05-16T10:35:04;16.40;90.50
23597;DHT22;40226;50.874;4.394;2023-05-16T10:37:31;16.40;1.00
23597;DHT22;40226;50.874;4.394;2023-05-16T10:40:00;16.40;1.00
23597;DHT22;40226;50.874;4.394;2023-05-16T10:42:26;16.60;99.90
23597;DHT22;40226;50.874;4.394;2023-05-16T10:44:55;16.40;1.00
23597;DHT22;40226;50.874;4.394;2023-05-16T10:47:33;16.50;1.00
23597;DHT22;40226;50.874;4.394;2023-05-16T10:49:59;16.40;1.00
23597;DHT22;40226;50.874;4.394;2023-05-16T10:52:32;16.50;1.00
23597;DHT22;40226;50.874;4.394;2023-05-16T10:55:01;16.80;1.00
23597;DHT22;40226;50.874;4.394;2023-05-16T10:57:28;16.70;1.00
23597;DHT22;40226;50.874;4.394;2023-05-16T10:59:57;17.00;1.00
23597;DHT22;40226;50.874;4.394;2023-05-16T11:02:29;17.40;1.00
23597;DHT22;40226;50.874;4.394;2023-05-16T11:04:59;17.80;99.90
23597;DHT22;40226;50.874;4.394;2023-05-16T11:07:32;18.10;99.90
23597;DHT22;40226;50.874;4.394;2023-05-16T11:12:44;18.30;99.90
23597;DHT22;40226;50.874;4.394;2023-05-16T11:15:27;18.50;17.50
23597;DHT22;40226;50.874;4.394;2023-05-16T11:18:31;19.10;1.00
23597;DHT22;40226;50.874;4.394;2023-05-16T11:21:02;18.70;1.00
23597;DHT22;40226;50.874;4.394;2023-05-16T11:23:28;18.50;1.00
23597;DHT22;40226;50.874;4.394;2023-05-16T11:25:56;18.80;1.00
23597;DHT22;40226;50.874;4.394;2023-05-16T11:28:26;19.30;1.00
23597;DHT22;40226;50.874;4.394;2023-05-16T11:30:54;19.80;99.90
23597;DHT22;40226;50.874;4.394;2023-05-16T11:33:23;20.00;99.90
23597;DHT22;40226;50.874;4.394;2023-05-16T11:36:07;19.40;99.90
23597;DHT22;40226;50.874;4.394;2023-05-16T11:38:34;19.20;99.90
23597;DHT22;40226;50.874;4.394;2023-05-16T11:41:04;19.30;99.90
23597;DHT22;40226;50.874;4.394;2023-05-16T11:43:41;19.50;99.90
23597;DHT22;40226;50.874;4.394;2023-05-16T11:46:10;20.10;99.90
23597;DHT22;40226;50.874;4.394;2023-05-16T11:48:36;20.60;99.90
23597;DHT22;40226;50.874;4.394;2023-05-16T11:51:01;20.50;99.90
23597;DHT22;40226;50.874;4.394;2023-05-16T11:53:27;19.80;99.90
23597;DHT22;40226;50.874;4.394;2023-05-16T11:55:53;19.40;99.90
23597;DHT22;40226;50.874;4.394;2023-05-16T11:58:19;19.70;99.90
23597;DHT22;40226;50.874;4.394;2023-05-16T12:00:49;20.00;99.90
23597;DHT22;40226;50.874;4.394;2023-05-16T12:03:16;20.90;99.90
23597;DHT22;40226;50.874;4.394;2023-05-16T12:05:52;20.70;99.90
23597;DHT22;40226;50.874;4.394;2023-05-16T12:08:19;20.30;99.90
23597;DHT22;40226;50.874;4.394;2023-05-16T12:10:49;20.70;99.90
23597;DHT22;40226;50.874;4.394;2023-05-16T12:13:20;21.00;99.90
23597;DHT22;40226;50.874;4.394;2023-05-16T12:15:46;21.60;99.90
23597;DHT22;40226;50.874;4.394;2023-05-16T12:18:12;21.50;99.90
23597;DHT22;40226;50.874;4.394;2023-05-16T12:20:38;22.00;45.20
23597;DHT22;40226;50.874;4.394;2023-05-16T12:23:09;21.70;13.00
23597;DHT22;40226;50.874;4.394;2023-05-16T12:25:35;20.80;31.80
23597;DHT22;40226;50.874;4.394;2023-05-16T12:28:03;20.20;20.70
23597;DHT22;40226;50.874;4.394;2023-05-16T12:30:30;20.90;91.50
23597;DHT22;40226;50.874;4.394;2023-05-16T12:33:03;21.90;92.60
23597;DHT22;40226;50.874;4.394;2023-05-16T12:35:33;23.30;1.00
23597;DHT22;40226;50.874;4.394;2023-05-16T12:38:03;23.10;16.00
23597;DHT22;40226;50.874;4.394;2023-05-16T12:40:29;23.10;1.00
23597;DHT22;40226;50.874;4.394;2023-05-16T12:42:56;23.10;1.00
23597;DHT22;40226;50.874;4.394;2023-05-16T12:45:22;23.30;1.00
23597;DHT22;40226;50.874;4.394;2023-05-16T12:47:48;24.00;1.00
23597;DHT22;40226;50.874;4.394;2023-05-16T12:50:15;23.70;1.00
23597;DHT22;40226;50.874;4.394;2023-05-16T12:53:11;23.10;1.00
23597;DHT22;40226;50.874;4.394;2023-05-16T12:55:37;22.50;1.00
23597;DHT22;40226;50.874;4.394;2023-05-16T12:58:03;21.70;1.00
23597;DHT22;40226;50.874;4.394;2023-05-16T13:00:29;21.30;1.00
23597;DHT22;40226;50.874;4.394;2023-05-16T13:02:56;21.20;1.00
23597;DHT22;40226;50.874;4.394;2023-05-16T13:05:22;21.20;1.00
23597;DHT22;40226;50.874;4.394;2023-05-16T13:07:48;22.10;1.00
23597;DHT22;40226;50.874;4.394;2023-05-16T13:10:16;22.30;1.00
23597;DHT22;40226;50.874;4.394;2023-05-16T13:12:42;21.70;1.00
23597;DHT22;40226;50.874;4.394;2023-05-16T13:15:09;21.40;1.00
23597;DHT22;40226;50.874;4.394;2023-05-16T13:17:37;22.20;1.00
23597;DHT22;40226;50.874;4.394;2023-05-16T13:20:04;23.10;1.00
23597;DHT22;40226;50.874;4.394;2023-05-16T13:22:37;24.20;1.00
23597;DHT22;40226;50.874;4.394;2023-05-16T13:25:03;25.00;1.00
23597;DHT22;40226;50.874;4.394;2023-05-16T13:27:30;24.10;1.00
23597;DHT22;40226;50.874;4.394;2023-05-16T13:29:56;23.80;1.00
23597;DHT22;40226;50.874;4.394;2023-05-16T13:32:23;24.90;1.00
23597;DHT22;40226;50.874;4.394;2023-05-16T13:34:49;24.70;1.00
23597;DHT22;40226;50.874;4.394;2023-05-16T13:37:15;24.50;1.00
23597;DHT22;40226;50.874;4.394;2023-05-16T13:39:40;25.00;1.00
23597;DHT22;40226;50.874;4.394;2023-05-16T13:42:06;25.20;1.00
23597;DHT22;40226;50.874;4.394;2023-05-16T13:44:32;25.30;1.00
23597;DHT22;40226;50.874;4.394;2023-05-16T13:46:58;24.90;1.00
23597;DHT22;40226;50.874;4.394;2023-05-16T13:49:25;25.50;99.90
23597;DHT22;40226;50.874;4.394;2023-05-16T13:51:51;25.50;99.90
23597;DHT22;40226;50.874;4.394;2023-05-16T13:54:19;25.60;1.00
23597;DHT22;40226;50.874;4.394;2023-05-16T13:56:47;25.70;1.00
23597;DHT22;40226;50.874;4.394;2023-05-16T13:59:13;25.50;99.90
23597;DHT22;40226;50.874;4.394;2023-05-16T14:01:38;25.70;99.90
23597;DHT22;40226;50.874;4.394;2023-05-16T14:04:04;25.50;99.90
23597;DHT22;40226;50.874;4.394;2023-05-16T14:06:30;26.10;99.90
23597;DHT22;40226;50.874;4.394;2023-05-16T14:08:56;26.40;99.90
23597;DHT22;40226;50.874;4.394;2023-05-16T14:11:21;26.10;99.90
23597;DHT22;40226;50.874;4.394;2023-05-16T14:13:54;25.40;99.90
23597;DHT22;40226;50.874;4.394;2023-05-16T14:16:20;25.00;99.90
23597;DHT22;40226;50.874;4.394;2023-05-16T14:18:46;26.00;99.90
23597;DHT22;40226;50.874;4.394;2023-05-16T14:21:12;26.90;99.90
23597;DHT22;40226;50.874;4.394;2023-05-16T14:23:38;27.50;99.90
23597;DHT22;40226;50.874;4.394;2023-05-16T14:26:04;27.50;99.90
23597;DHT22;40226;50.874;4.394;2023-05-16T14:28:30;25.90;99.90
23597;DHT22;40226;50.874;4.394;2023-05-16T14:30:57;25.00;99.90
23597;DHT22;40226;50.874;4.394;2023-05-16T14:33:23;23.70;99.90
23597;DHT22;40226;50.874;4.394;2023-05-16T14:35:49;24.30;99.90
23597;DHT22;40226;50.874;4.394;2023-05-16T14:38:15;23.70;99.90
23597;DHT22;40226;50.874;4.394;2023-05-16T14:40:41;24.00;99.90
23597;DHT22;40226;50.874;4.394;2023-05-16T14:43:06;24.60;99.90
23597;DHT22;40226;50.874;4.394;2023-05-16T14:45:33;24.60;99.90
23597;DHT22;40226;50.874;4.394;2023-05-16T14:47:58;25.70;99.90
23597;DHT22;40226;50.874;4.394;2023-05-16T14:50:24;26.20;99.90
23597;DHT22;40226;50.874;4.394;2023-05-16T14:52:50;27.10;99.90
23597;DHT22;40226;50.874;4.394;2023-05-16T14:55:15;26.90;99.90
23597;DHT22;40226;50.874;4.394;2023-05-16T14:57:41;27.40;99.90
23597;DHT22;40226;50.874;4.394;2023-05-16T15:00:08;26.70;99.90
23597;DHT22;40226;50.874;4.394;2023-05-16T15:02:35;27.00;99.90
23597;DHT22;40226;50.874;4.394;2023-05-16T15:05:00;27.30;99.90
23597;DHT22;40226;50.874;4.394;2023-05-16T15:07:26;26.90;99.90
23597;DHT22;40226;50.874;4.394;2023-05-16T15:09:52;27.70;99.90
23597;DHT22;40226;50.874;4.394;2023-05-16T15:12:17;28.10;99.90
23597;DHT22;40226;50.874;4.394;2023-05-16T15:14:43;28.60;99.90
23597;DHT22;40226;50.874;4.394;2023-05-16T15:17:08;29.10;99.90
23597;DHT22;40226;50.874;4.394;2023-05-16T15:19:34;28.20;99.90
23597;DHT22;40226;50.874;4.394;2023-05-16T15:22:00;27.40;99.90
23597;DHT22;40226;50.874;4.394;2023-05-16T15:24:26;27.50;99.90
23597;DHT22;40226;50.874;4.394;2023-05-16T15:26:52;27.10;99.90
23597;DHT22;40226;50.874;4.394;2023-05-16T15:29:18;27.10;99.90
23597;DHT22;40226;50.874;4.394;2023-05-16T15:31:44;27.20;99.90
23597;DHT22;40226;50.874;4.394;2023-05-16T15:34:10;27.40;99.90
23597;DHT22;40226;50.874;4.394;2023-05-16T15:36:36;26.90;99.90
23597;DHT22;40226;50.874;4.394;2023-05-16T15:39:02;26.50;99.90
23597;DHT22;40226;50.874;4.394;2023-05-16T15:41:28;26.30;99.90
23597;DHT22;40226;50.874;4.394;2023-05-16T15:43:53;25.60;99.90
23597;DHT22;40226;50.874;4.394;2023-05-16T15:46:40;24.70;99.90
23597;DHT22;40226;50.874;4.394;2023-05-16T15:49:26;23.00;99.90
23597;DHT22;40226;50.874;4.394;2023-05-16T15:51:52;22.00;99.90
23597;DHT22;40226;50.874;4.394;2023-05-16T15:54:18;21.00;99.90
23597;DHT22;40226;50.874;4.394;2023-05-16T15:56:43;20.10;99.90